aviador You're here:

EPSY Decoded Metar

SZYMANY in POLAND
Report Time2018-07-20 19:30:00
UTC Time2018-07-20 20:01:34
Flight Rules vfr VFR
Wind320° at 07 kt
W.Decomp.*RWY 02: 3.3 kt HW 6.2 kt LCW
W.Rank320° ranks 8
Current wind is below 320° avg. (7.6)
Visibility9999 m
Phenomena:N/A
Clouds:N/A
Expected CloudBase > 1,600 ft AGL from Temp-Dew spread
CeilingNone
Temp21°C (ISA +7)
Dew Point17°C (78% RH)
AAT20.9°C
QNH1011 hPa
Density Alt1,598 ft
Elevation463 ft
Report Wrong Elevation
Raw Report
METAR EPSY 201930Z 32007KT CAVOK 21/17 Q1011=

Extra information for EPSY:More info

Airport Information Weather charts Add Link Nearby Venues Social comments